sensor_id;sensor_type;location;lat;lon;timestamp;temperature;humidity
6439;DHT22;3252;52.540;13.290;2022-10-13T00:01:40;8.60;99.90
6439;DHT22;3252;52.540;13.290;2022-10-13T00:03:42;8.60;99.90
6439;DHT22;3252;52.540;13.290;2022-10-13T00:05:53;8.60;99.90
6439;DHT22;3252;52.540;13.290;2022-10-13T00:07:56;8.60;99.90
6439;DHT22;3252;52.540;13.290;2022-10-13T00:09:58;8.50;99.90
6439;DHT22;3252;52.540;13.290;2022-10-13T00:12:00;8.50;99.90
6439;DHT22;3252;52.540;13.290;2022-10-13T00:14:03;8.50;99.90
6439;DHT22;3252;52.540;13.290;2022-10-13T00:16:10;8.50;99.90
6439;DHT22;3252;52.540;13.290;2022-10-13T00:18:15;8.50;99.90
6439;DHT22;3252;52.540;13.290;2022-10-13T00:20:17;8.40;99.90
6439;DHT22;3252;52.540;13.290;2022-10-13T00:22:19;8.40;99.90
6439;DHT22;3252;52.540;13.290;2022-10-13T00:24:21;8.40;99.90
6439;DHT22;3252;52.540;13.290;2022-10-13T00:26:24;8.30;99.90
6439;DHT22;3252;52.540;13.290;2022-10-13T00:28:26;8.40;99.90
6439;DHT22;3252;52.540;13.290;2022-10-13T00:30:28;8.30;99.90
6439;DHT22;3252;52.540;13.290;2022-10-13T00:32:30;8.30;99.90
6439;DHT22;3252;52.540;13.290;2022-10-13T00:34:33;8.30;99.90
6439;DHT22;3252;52.540;13.290;2022-10-13T00:36:37;8.30;99.90
6439;DHT22;3252;52.540;13.290;2022-10-13T00:38:39;8.20;99.90
6439;DHT22;3252;52.540;13.290;2022-10-13T00:40:45;8.20;99.90
6439;DHT22;3252;52.540;13.290;2022-10-13T00:42:47;8.20;99.90
6439;DHT22;3252;52.540;13.290;2022-10-13T00:45:04;8.20;99.90
6439;DHT22;3252;52.540;13.290;2022-10-13T00:47:07;8.20;99.90
6439;DHT22;3252;52.540;13.290;2022-10-13T00:49:12;8.10;99.90
6439;DHT22;3252;52.540;13.290;2022-10-13T00:51:24;8.10;99.90
6439;DHT22;3252;52.540;13.290;2022-10-13T00:53:31;8.10;99.90
6439;DHT22;3252;52.540;13.290;2022-10-13T00:55:36;8.00;99.90
6439;DHT22;3252;52.540;13.290;2022-10-13T00:57:41;8.00;99.90
6439;DHT22;3252;52.540;13.290;2022-10-13T00:59:44;8.00;99.90
6439;DHT22;3252;52.540;13.290;2022-10-13T01:01:46;8.00;99.90
6439;DHT22;3252;52.540;13.290;2022-10-13T01:03:48;8.00;99.90
6439;DHT22;3252;52.540;13.290;2022-10-13T01:05:52;8.00;99.90
6439;DHT22;3252;52.540;13.290;2022-10-13T01:07:57;7.90;99.90
6439;DHT22;3252;52.540;13.290;2022-10-13T01:10:00;7.80;99.90
6439;DHT22;3252;52.540;13.290;2022-10-13T01:12:10;7.80;99.90
6439;DHT22;3252;52.540;13.290;2022-10-13T01:14:20;7.80;99.90
6439;DHT22;3252;52.540;13.290;2022-10-13T01:16:30;7.80;99.90
6439;DHT22;3252;52.540;13.290;2022-10-13T01:18:42;7.80;99.90
6439;DHT22;3252;52.540;13.290;2022-10-13T01:20:57;7.80;99.90
6439;DHT22;3252;52.540;13.290;2022-10-13T01:23:17;7.80;99.90
6439;DHT22;3252;52.540;13.290;2022-10-13T01:25:43;7.70;99.90
6439;DHT22;3252;52.540;13.290;2022-10-13T01:28:07;7.70;99.90
6439;DHT22;3252;52.540;13.290;2022-10-13T01:30:14;7.70;99.90
6439;DHT22;3252;52.540;13.290;2022-10-13T01:32:24;7.70;99.90
6439;DHT22;3252;52.540;13.290;2022-10-13T01:34:34;7.60;99.90
6439;DHT22;3252;52.540;13.290;2022-10-13T01:36:46;7.60;99.90
6439;DHT22;3252;52.540;13.290;2022-10-13T01:38:55;7.60;99.90
6439;DHT22;3252;52.540;13.290;2022-10-13T01:41:06;7.60;99.90
6439;DHT22;3252;52.540;13.290;2022-10-13T01:43:15;7.60;99.90
6439;DHT22;3252;52.540;13.290;2022-10-13T01:45:21;7.50;99.90
6439;DHT22;3252;52.540;13.290;2022-10-13T01:47:25;7.50;99.90
6439;DHT22;3252;52.540;13.290;2022-10-13T01:49:31;7.50;99.90
6439;DHT22;3252;52.540;13.290;2022-10-13T01:51:34;7.50;99.90
6439;DHT22;3252;52.540;13.290;2022-10-13T01:53:37;7.50;99.90
6439;DHT22;3252;52.540;13.290;2022-10-13T01:55:48;7.40;99.90
6439;DHT22;3252;52.540;13.290;2022-10-13T01:57:51;7.40;99.90
6439;DHT22;3252;52.540;13.290;2022-10-13T01:59:53;7.40;99.90
6439;DHT22;3252;52.540;13.290;2022-10-13T02:02:02;7.40;99.90
6439;DHT22;3252;52.540;13.290;2022-10-13T02:04:19;7.40;99.90
6439;DHT22;3252;52.540;13.290;2022-10-13T02:06:26;7.40;99.90
6439;DHT22;3252;52.540;13.290;2022-10-13T02:08:32;7.40;99.90
6439;DHT22;3252;52.540;13.290;2022-10-13T02:10:40;7.40;99.90
6439;DHT22;3252;52.540;13.290;2022-10-13T02:12:48;7.40;99.90
6439;DHT22;3252;52.540;13.290;2022-10-13T02:14:54;7.30;99.90
6439;DHT22;3252;52.540;13.290;2022-10-13T02:17:00;7.30;99.90
6439;DHT22;3252;52.540;13.290;2022-10-13T02:19:03;7.30;99.90
6439;DHT22;3252;52.540;13.290;2022-10-13T02:21:06;7.30;99.90
6439;DHT22;3252;52.540;13.290;2022-10-13T02:23:10;7.30;99.90
6439;DHT22;3252;52.540;13.290;2022-10-13T02:25:13;7.30;99.90
6439;DHT22;3252;52.540;13.290;2022-10-13T02:27:15;7.30;99.90
6439;DHT22;3252;52.540;13.290;2022-10-13T02:29:18;7.20;99.90
6439;DHT22;3252;52.540;13.290;2022-10-13T02:31:20;7.20;99.90
6439;DHT22;3252;52.540;13.290;2022-10-13T02:33:23;7.20;99.90
6439;DHT22;3252;52.540;13.290;2022-10-13T02:35:25;7.20;99.90
6439;DHT22;3252;52.540;13.290;2022-10-13T02:37:28;7.20;99.90
6439;DHT22;3252;52.540;13.290;2022-10-13T02:39:30;7.20;99.90
6439;DHT22;3252;52.540;13.290;2022-10-13T02:41:33;7.20;99.90
6439;DHT22;3252;52.540;13.290;2022-10-13T02:43:35;7.20;99.90
6439;DHT22;3252;52.540;13.290;2022-10-13T02:45:38;7.20;99.90
6439;DHT22;3252;52.540;13.290;2022-10-13T02:47:40;7.20;99.90
6439;DHT22;3252;52.540;13.290;2022-10-13T02:49:43;7.20;99.90
6439;DHT22;3252;52.540;13.290;2022-10-13T02:51:45;7.20;99.90
6439;DHT22;3252;52.540;13.290;2022-10-13T02:53:48;7.20;99.90
6439;DHT22;3252;52.540;13.290;2022-10-13T02:55:50;7.20;99.90
6439;DHT22;3252;52.540;13.290;2022-10-13T02:57:53;7.20;99.90
6439;DHT22;3252;52.540;13.290;2022-10-13T02:59:55;7.20;99.90
6439;DHT22;3252;52.540;13.290;2022-10-13T03:01:58;7.30;99.90
6439;DHT22;3252;52.540;13.290;2022-10-13T03:04:02;7.30;99.90
6439;DHT22;3252;52.540;13.290;2022-10-13T03:06:06;7.30;99.90
6439;DHT22;3252;52.540;13.290;2022-10-13T03:08:09;7.30;99.90
6439;DHT22;3252;52.540;13.290;2022-10-13T03:10:11;7.30;99.90
6439;DHT22;3252;52.540;13.290;2022-10-13T03:12:13;7.20;99.90
6439;DHT22;3252;52.540;13.290;2022-10-13T03:14:15;7.20;99.90
6439;DHT22;3252;52.540;13.290;2022-10-13T03:16:17;7.20;99.90
6439;DHT22;3252;52.540;13.290;2022-10-13T03:18:20;7.20;99.90
6439;DHT22;3252;52.540;13.290;2022-10-13T03:20:22;7.20;99.90
6439;DHT22;3252;52.540;13.290;2022-10-13T03:22:25;7.30;99.90
6439;DHT22;3252;52.540;13.290;2022-10-13T03:24:27;7.30;99.90
6439;DHT22;3252;52.540;13.290;2022-10-13T03:26:29;7.30;99.90
6439;DHT22;3252;52.540;13.290;2022-10-13T03:28:31;7.30;99.90
6439;DHT22;3252;52.540;13.290;2022-10-13T03:30:33;7.30;99.90
6439;DHT22;3252;52.540;13.290;2022-10-13T03:32:35;7.30;99.90
6439;DHT22;3252;52.540;13.290;2022-10-13T03:34:37;7.30;99.90
6439;DHT22;3252;52.540;13.290;2022-10-13T03:36:39;7.30;99.90
6439;DHT22;3252;52.540;13.290;2022-10-13T03:38:43;7.20;99.90
6439;DHT22;3252;52.540;13.290;2022-10-13T03:40:45;7.20;99.90
6439;DHT22;3252;52.540;13.290;2022-10-13T03:42:47;7.20;99.90
6439;DHT22;3252;52.540;13.290;2022-10-13T03:44:49;7.20;99.90
6439;DHT22;3252;52.540;13.290;2022-10-13T03:46:51;7.20;99.90
6439;DHT22;3252;52.540;13.290;2022-10-13T03:48:53;7.20;99.90
6439;DHT22;3252;52.540;13.290;2022-10-13T03:50:57;7.30;99.90
6439;DHT22;3252;52.540;13.290;2022-10-13T03:52:59;7.30;99.90
6439;DHT22;3252;52.540;13.290;2022-10-13T03:55:02;7.30;99.90
6439;DHT22;3252;52.540;13.290;2022-10-13T03:57:04;7.30;99.90
6439;DHT22;3252;52.540;13.290;2022-10-13T03:59:06;7.30;99.90
6439;DHT22;3252;52.540;13.290;2022-10-13T04:01:10;7.30;99.90
6439;DHT22;3252;52.540;13.290;2022-10-13T04:03:16;7.40;99.90
6439;DHT22;3252;52.540;13.290;2022-10-13T04:05:18;7.40;99.90
6439;DHT22;3252;52.540;13.290;2022-10-13T04:07:20;7.40;99.90
6439;DHT22;3252;52.540;13.290;2022-10-13T04:09:22;7.40;99.90
6439;DHT22;3252;52.540;13.290;2022-10-13T04:11:25;7.40;99.90
6439;DHT22;3252;52.540;13.290;2022-10-13T04:13:29;7.50;99.90
6439;DHT22;3252;52.540;13.290;2022-10-13T04:15:35;7.50;99.90
6439;DHT22;3252;52.540;13.290;2022-10-13T04:17:37;7.50;99.90
6439;DHT22;3252;52.540;13.290;2022-10-13T04:19:39;7.50;99.90
6439;DHT22;3252;52.540;13.290;2022-10-13T04:21:42;7.50;99.90
6439;DHT22;3252;52.540;13.290;2022-10-13T04:23:44;7.50;99.90
6439;DHT22;3252;52.540;13.290;2022-10-13T04:25:46;7.50;99.90
6439;DHT22;3252;52.540;13.290;2022-10-13T04:27:49;7.60;99.90
6439;DHT22;3252;52.540;13.290;2022-10-13T04:29:51;7.60;99.90
6439;DHT22;3252;52.540;13.290;2022-10-13T04:31:53;7.60;99.90
6439;DHT22;3252;52.540;13.290;2022-10-13T04:33:55;7.60;99.90
6439;DHT22;3252;52.540;13.290;2022-10-13T04:35:57;7.70;99.90
6439;DHT22;3252;52.540;13.290;2022-10-13T04:37:59;7.70;99.90
6439;DHT22;3252;52.540;13.290;2022-10-13T04:40:02;7.70;99.90
6439;DHT22;3252;52.540;13.290;2022-10-13T04:42:04;7.80;99.90
6439;DHT22;3252;52.540;13.290;2022-10-13T04:44:12;7.80;99.90
6439;DHT22;3252;52.540;13.290;2022-10-13T04:46:16;7.80;99.90
6439;DHT22;3252;52.540;13.290;2022-10-13T04:48:19;7.90;99.90
6439;DHT22;3252;52.540;13.290;2022-10-13T04:50:21;7.90;99.90
6439;DHT22;3252;52.540;13.290;2022-10-13T04:52:33;7.90;99.90
6439;DHT22;3252;52.540;13.290;2022-10-13T04:54:35;7.90;99.90
6439;DHT22;3252;52.540;13.290;2022-10-13T04:56:37;7.90;99.90
6439;DHT22;3252;52.540;13.290;2022-10-13T04:58:39;7.90;99.90
6439;DHT22;3252;52.540;13.290;2022-10-13T05:00:46;7.90;99.90
6439;DHT22;3252;52.540;13.290;2022-10-13T05:02:48;8.00;99.90
6439;DHT22;3252;52.540;13.290;2022-10-13T05:04:50;8.00;99.90
6439;DHT22;3252;52.540;13.290;2022-10-13T05:06:54;8.00;99.90
6439;DHT22;3252;52.540;13.290;2022-10-13T05:08:56;8.00;99.90
6439;DHT22;3252;52.540;13.290;2022-10-13T05:10:59;8.10;99.90
6439;DHT22;3252;52.540;13.290;2022-10-13T05:13:02;8.10;99.90
6439;DHT22;3252;52.540;13.290;2022-10-13T05:15:05;8.10;99.90
6439;DHT22;3252;52.540;13.290;2022-10-13T05:17:09;8.10;99.90
6439;DHT22;3252;52.540;13.290;2022-10-13T05:19:11;8.10;99.90
6439;DHT22;3252;52.540;13.290;2022-10-13T05:21:15;8.20;99.90
6439;DHT22;3252;52.540;13.290;2022-10-13T05:23:17;8.20;99.90
6439;DHT22;3252;52.540;13.290;2022-10-13T05:25:19;8.20;99.90
6439;DHT22;3252;52.540;13.290;2022-10-13T05:27:21;8.20;99.90
6439;DHT22;3252;52.540;13.290;2022-10-13T05:29:23;8.20;99.90
6439;DHT22;3252;52.540;13.290;2022-10-13T05:31:27;8.20;99.90
6439;DHT22;3252;52.540;13.290;2022-10-13T05:33:31;8.20;99.90
6439;DHT22;3252;52.540;13.290;2022-10-13T05:35:34;8.20;99.90
6439;DHT22;3252;52.540;13.290;2022-10-13T05:37:36;8.10;99.90
6439;DHT22;3252;52.540;13.290;2022-10-13T05:39:39;8.10;99.90
6439;DHT22;3252;52.540;13.290;2022-10-13T05:41:41;8.20;99.90
6439;DHT22;3252;52.540;13.290;2022-10-13T05:43:47;8.10;99.90
6439;DHT22;3252;52.540;13.290;2022-10-13T05:45:50;8.10;99.90
6439;DHT22;3252;52.540;13.290;2022-10-13T05:47:55;8.20;99.90
6439;DHT22;3252;52.540;13.290;2022-10-13T05:49:59;8.10;99.90
6439;DHT22;3252;52.540;13.290;2022-10-13T05:52:06;8.20;99.90
6439;DHT22;3252;52.540;13.290;2022-10-13T05:54:13;8.20;99.90
6439;DHT22;3252;52.540;13.290;2022-10-13T05:56:20;8.20;99.90
6439;DHT22;3252;52.540;13.290;2022-10-13T05:58:23;8.20;99.90
6439;DHT22;3252;52.540;13.290;2022-10-13T06:00:25;8.30;99.90
6439;DHT22;3252;52.540;13.290;2022-10-13T06:02:34;8.30;99.90
6439;DHT22;3252;52.540;13.290;2022-10-13T06:04:39;8.30;99.90
6439;DHT22;3252;52.540;13.290;2022-10-13T06:06:46;8.30;99.90
6439;DHT22;3252;52.540;13.290;2022-10-13T06:08:49;8.40;99.90
6439;DHT22;3252;52.540;13.290;2022-10-13T06:10:51;8.30;99.90
6439;DHT22;3252;52.540;13.290;2022-10-13T06:12:53;8.30;99.90
6439;DHT22;3252;52.540;13.290;2022-10-13T06:14:55;8.30;99.90
6439;DHT22;3252;52.540;13.290;2022-10-13T06:16:57;8.40;99.90
6439;DHT22;3252;52.540;13.290;2022-10-13T06:18:59;8.40;99.90
6439;DHT22;3252;52.540;13.290;2022-10-13T06:21:01;8.40;99.90
6439;DHT22;3252;52.540;13.290;2022-10-13T06:23:05;8.40;99.90
6439;DHT22;3252;52.540;13.290;2022-10-13T06:25:07;8.40;99.90
6439;DHT22;3252;52.540;13.290;2022-10-13T06:27:10;8.50;99.90
6439;DHT22;3252;52.540;13.290;2022-10-13T06:29:12;8.50;99.90
6439;DHT22;3252;52.540;13.290;2022-10-13T06:31:14;8.50;99.90
6439;DHT22;3252;52.540;13.290;2022-10-13T06:33:16;8.50;99.90
6439;DHT22;3252;52.540;13.290;2022-10-13T06:35:18;8.50;99.90
6439;DHT22;3252;52.540;13.290;2022-10-13T06:37:20;8.50;99.90
6439;DHT22;3252;52.540;13.290;2022-10-13T06:39:23;8.60;99.90
6439;DHT22;3252;52.540;13.290;2022-10-13T06:41:26;8.50;99.90
6439;DHT22;3252;52.540;13.290;2022-10-13T06:43:28;8.60;99.90
6439;DHT22;3252;52.540;13.290;2022-10-13T06:45:35;8.60;99.90
6439;DHT22;3252;52.540;13.290;2022-10-13T06:47:37;8.60;99.90
6439;DHT22;3252;52.540;13.290;2022-10-13T06:49:39;8.60;99.90
6439;DHT22;3252;52.540;13.290;2022-10-13T06:51:45;8.60;99.90
6439;DHT22;3252;52.540;13.290;2022-10-13T06:53:47;8.60;99.90
6439;DHT22;3252;52.540;13.290;2022-10-13T06:55:56;8.70;99.90
6439;DHT22;3252;52.540;13.290;2022-10-13T06:57:58;8.70;99.90
6439;DHT22;3252;52.540;13.290;2022-10-13T07:00:00;8.70;99.90
6439;DHT22;3252;52.540;13.290;2022-10-13T07:02:02;8.80;99.90
6439;DHT22;3252;52.540;13.290;2022-10-13T07:04:04;8.80;99.90
6439;DHT22;3252;52.540;13.290;2022-10-13T07:06:07;8.80;99.90
6439;DHT22;3252;52.540;13.290;2022-10-13T07:08:09;8.90;99.90
6439;DHT22;3252;52.540;13.290;2022-10-13T07:10:11;9.00;99.90
6439;DHT22;3252;52.540;13.290;2022-10-13T07:12:14;9.00;99.90
6439;DHT22;3252;52.540;13.290;2022-10-13T07:14:16;9.10;99.90
6439;DHT22;3252;52.540;13.290;2022-10-13T07:16:18;9.10;99.90
6439;DHT22;3252;52.540;13.290;2022-10-13T07:18:20;9.20;99.90
6439;DHT22;3252;52.540;13.290;2022-10-13T07:20:23;9.20;99.90
6439;DHT22;3252;52.540;13.290;2022-10-13T07:22:28;9.30;99.90
6439;DHT22;3252;52.540;13.290;2022-10-13T07:24:30;9.30;99.90
6439;DHT22;3252;52.540;13.290;2022-10-13T07:26:32;9.40;99.90
6439;DHT22;3252;52.540;13.290;2022-10-13T07:28:36;9.50;99.90
6439;DHT22;3252;52.540;13.290;2022-10-13T07:30:39;9.50;99.90
6439;DHT22;3252;52.540;13.290;2022-10-13T07:32:41;9.60;99.90
6439;DHT22;3252;52.540;13.290;2022-10-13T07:34:43;9.60;99.90
6439;DHT22;3252;52.540;13.290;2022-10-13T07:36:45;9.70;99.90
6439;DHT22;3252;52.540;13.290;2022-10-13T07:38:47;9.70;99.90
6439;DHT22;3252;52.540;13.290;2022-10-13T07:40:49;9.80;99.90
6439;DHT22;3252;52.540;13.290;2022-10-13T07:42:51;9.80;99.90
6439;DHT22;3252;52.540;13.290;2022-10-13T07:44:54;9.90;99.90
6439;DHT22;3252;52.540;13.290;2022-10-13T07:46:56;10.00;99.90
6439;DHT22;3252;52.540;13.290;2022-10-13T07:48:59;10.00;99.90
6439;DHT22;3252;52.540;13.290;2022-10-13T07:51:03;10.10;99.90
6439;DHT22;3252;52.540;13.290;2022-10-13T07:53:07;10.20;99.90
6439;DHT22;3252;52.540;13.290;2022-10-13T07:55:09;10.30;99.90
6439;DHT22;3252;52.540;13.290;2022-10-13T07:57:11;10.40;99.90
6439;DHT22;3252;52.540;13.290;2022-10-13T07:59:15;10.40;99.90
6439;DHT22;3252;52.540;13.290;2022-10-13T08:01:18;10.50;99.90
6439;DHT22;3252;52.540;13.290;2022-10-13T08:03:20;10.60;99.90
6439;DHT22;3252;52.540;13.290;2022-10-13T08:05:23;10.80;99.90
6439;DHT22;3252;52.540;13.290;2022-10-13T08:07:25;10.80;99.90
6439;DHT22;3252;52.540;13.290;2022-10-13T08:09:27;10.90;99.90
6439;DHT22;3252;52.540;13.290;2022-10-13T08:11:34;10.90;99.90
6439;DHT22;3252;52.540;13.290;2022-10-13T08:13:36;11.00;99.90
6439;DHT22;3252;52.540;13.290;2022-10-13T08:15:47;11.00;99.90
6439;DHT22;3252;52.540;13.290;2022-10-13T08:17:50;11.10;99.90
6439;DHT22;3252;52.540;13.290;2022-10-13T08:19:53;11.20;99.90
6439;DHT22;3252;52.540;13.290;2022-10-13T08:22:00;11.20;99.90
6439;DHT22;3252;52.540;13.290;2022-10-13T08:24:03;11.30;99.90
6439;DHT22;3252;52.540;13.290;2022-10-13T08:26:13;11.40;99.90
6439;DHT22;3252;52.540;13.290;2022-10-13T08:28:18;11.40;99.90
6439;DHT22;3252;52.540;13.290;2022-10-13T08:30:20;11.50;99.90
6439;DHT22;3252;52.540;13.290;2022-10-13T08:32:22;11.60;99.90
6439;DHT22;3252;52.540;13.290;2022-10-13T08:34:26;11.60;99.90
6439;DHT22;3252;52.540;13.290;2022-10-13T08:36:32;11.70;99.90
6439;DHT22;3252;52.540;13.290;2022-10-13T08:38:34;11.70;99.90
6439;DHT22;3252;52.540;13.290;2022-10-13T08:40:39;11.80;99.90
6439;DHT22;3252;52.540;13.290;2022-10-13T08:42:42;11.90;99.90
6439;DHT22;3252;52.540;13.290;2022-10-13T08:44:52;11.90;99.90
6439;DHT22;3252;52.540;13.290;2022-10-13T08:47:00;11.90;99.90
6439;DHT22;3252;52.540;13.290;2022-10-13T08:49:08;12.00;99.90
6439;DHT22;3252;52.540;13.290;2022-10-13T08:51:12;12.00;99.90
6439;DHT22;3252;52.540;13.290;2022-10-13T08:53:22;12.10;99.90
6439;DHT22;3252;52.540;13.290;2022-10-13T08:55:30;12.10;99.90
6439;DHT22;3252;52.540;13.290;2022-10-13T08:57:34;12.20;99.90
6439;DHT22;3252;52.540;13.290;2022-10-13T08:59:37;12.20;99.90
6439;DHT22;3252;52.540;13.290;2022-10-13T09:01:40;12.30;99.90
6439;DHT22;3252;52.540;13.290;2022-10-13T09:03:50;12.40;99.90
6439;DHT22;3252;52.540;13.290;2022-10-13T09:06:01;12.40;99.90
6439;DHT22;3252;52.540;13.290;2022-10-13T09:08:18;12.50;99.90
6439;DHT22;3252;52.540;13.290;2022-10-13T09:10:23;12.50;99.90
6439;DHT22;3252;52.540;13.290;2022-10-13T09:12:26;12.50;99.90
6439;DHT22;3252;52.540;13.290;2022-10-13T09:14:30;12.50;99.90
6439;DHT22;3252;52.540;13.290;2022-10-13T09:16:34;12.60;99.90
6439;DHT22;3252;52.540;13.290;2022-10-13T09:18:40;12.60;99.90
6439;DHT22;3252;52.540;13.290;2022-10-13T09:20:49;12.60;99.90
6439;DHT22;3252;52.540;13.290;2022-10-13T09:23:00;12.60;99.90
6439;DHT22;3252;52.540;13.290;2022-10-13T09:25:17;12.60;99.90
6439;DHT22;3252;52.540;13.290;2022-10-13T09:27:19;12.70;99.90
6439;DHT22;3252;52.540;13.290;2022-10-13T09:29:24;12.70;99.90
6439;DHT22;3252;52.540;13.290;2022-10-13T09:31:27;12.80;99.90
6439;DHT22;3252;52.540;13.290;2022-10-13T09:33:34;12.80;99.90
6439;DHT22;3252;52.540;13.290;2022-10-13T09:35:37;12.80;99.90
6439;DHT22;3252;52.540;13.290;2022-10-13T09:37:39;12.90;99.90
6439;DHT22;3252;52.540;13.290;2022-10-13T09:39:41;12.90;99.90
6439;DHT22;3252;52.540;13.290;2022-10-13T09:41:44;13.00;99.90
6439;DHT22;3252;52.540;13.290;2022-10-13T09:44:11;13.00;99.90
6439;DHT22;3252;52.540;13.290;2022-10-13T09:46:20;13.10;99.90
6439;DHT22;3252;52.540;13.290;2022-10-13T09:48:25;13.20;99.90
6439;DHT22;3252;52.540;13.290;2022-10-13T09:50:29;13.20;99.90
6439;DHT22;3252;52.540;13.290;2022-10-13T09:52:31;13.30;99.90
6439;DHT22;3252;52.540;13.290;2022-10-13T09:54:40;13.40;99.90
6439;DHT22;3252;52.540;13.290;2022-10-13T09:56:47;13.40;99.90
6439;DHT22;3252;52.540;13.290;2022-10-13T09:59:05;13.50;99.90
6439;DHT22;3252;52.540;13.290;2022-10-13T10:01:17;13.50;99.90
6439;DHT22;3252;52.540;13.290;2022-10-13T10:03:22;13.60;99.90
6439;DHT22;3252;52.540;13.290;2022-10-13T10:05:28;13.70;99.90
6439;DHT22;3252;52.540;13.290;2022-10-13T10:07:35;13.70;99.90
6439;DHT22;3252;52.540;13.290;2022-10-13T10:09:40;13.80;99.90
6439;DHT22;3252;52.540;13.290;2022-10-13T10:11:49;13.80;99.90
6439;DHT22;3252;52.540;13.290;2022-10-13T10:13:53;13.90;99.90
6439;DHT22;3252;52.540;13.290;2022-10-13T10:16:00;14.00;99.90
6439;DHT22;3252;52.540;13.290;2022-10-13T10:18:07;14.10;99.90
6439;DHT22;3252;52.540;13.290;2022-10-13T10:20:46;14.10;99.90
6439;DHT22;3252;52.540;13.290;2022-10-13T10:22:59;14.20;99.90
6439;DHT22;3252;52.540;13.290;2022-10-13T10:25:18;14.40;99.90
6439;DHT22;3252;52.540;13.290;2022-10-13T10:27:28;14.50;99.90
6439;DHT22;3252;52.540;13.290;2022-10-13T10:29:40;14.50;99.90
6439;DHT22;3252;52.540;13.290;2022-10-13T10:31:54;14.60;99.90
6439;DHT22;3252;52.540;13.290;2022-10-13T10:34:10;14.80;99.90
6439;DHT22;3252;52.540;13.290;2022-10-13T10:36:18;15.00;99.90
6439;DHT22;3252;52.540;13.290;2022-10-13T10:38:31;15.10;99.90
6439;DHT22;3252;52.540;13.290;2022-10-13T10:40:43;15.20;99.90
6439;DHT22;3252;52.540;13.290;2022-10-13T10:43:10;15.30;99.90
6439;DHT22;3252;52.540;13.290;2022-10-13T10:45:20;15.40;99.90
6439;DHT22;3252;52.540;13.290;2022-10-13T10:47:25;15.50;99.90
6439;DHT22;3252;52.540;13.290;2022-10-13T10:49:31;15.50;99.90
6439;DHT22;3252;52.540;13.290;2022-10-13T10:51:35;15.60;99.90
6439;DHT22;3252;52.540;13.290;2022-10-13T10:53:47;15.60;99.90
6439;DHT22;3252;52.540;13.290;2022-10-13T10:55:53;15.60;99.90
6439;DHT22;3252;52.540;13.290;2022-10-13T10:58:04;15.60;99.90
6439;DHT22;3252;52.540;13.290;2022-10-13T11:00:12;15.70;99.90
6439;DHT22;3252;52.540;13.290;2022-10-13T11:02:29;15.70;99.90
6439;DHT22;3252;52.540;13.290;2022-10-13T11:04:41;15.70;99.90
6439;DHT22;3252;52.540;13.290;2022-10-13T11:06:43;15.80;99.90
6439;DHT22;3252;52.540;13.290;2022-10-13T11:08:48;15.90;99.90
6439;DHT22;3252;52.540;13.290;2022-10-13T11:13:29;16.80;99.90
6439;DHT22;3252;52.540;13.290;2022-10-13T11:15:40;17.40;99.90
6439;DHT22;3252;52.540;13.290;2022-10-13T11:17:43;18.00;99.90
6439;DHT22;3252;52.540;13.290;2022-10-13T11:19:46;18.40;99.90
6439;DHT22;3252;52.540;13.290;2022-10-13T11:22:21;18.30;99.70
6439;DHT22;3252;52.540;13.290;2022-10-13T11:24:45;18.00;99.80
6439;DHT22;3252;52.540;13.290;2022-10-13T11:26:47;17.80;99.90
6439;DHT22;3252;52.540;13.290;2022-10-13T11:28:51;17.60;99.90
6439;DHT22;3252;52.540;13.290;2022-10-13T11:30:54;17.40;99.90
6439;DHT22;3252;52.540;13.290;2022-10-13T11:32:57;17.20;99.90
6439;DHT22;3252;52.540;13.290;2022-10-13T11:35:11;17.00;99.90
6439;DHT22;3252;52.540;13.290;2022-10-13T11:37:16;16.80;99.90
6439;DHT22;3252;52.540;13.290;2022-10-13T11:42:04;16.70;99.90
6439;DHT22;3252;52.540;13.290;2022-10-13T11:44:15;16.60;99.90
6439;DHT22;3252;52.540;13.290;2022-10-13T11:46:29;16.60;99.90
6439;DHT22;3252;52.540;13.290;2022-10-13T11:51:10;16.70;99.90
6439;DHT22;3252;52.540;13.290;2022-10-13T11:53:18;16.80;99.90
6439;DHT22;3252;52.540;13.290;2022-10-13T11:55:32;17.00;99.90
6439;DHT22;3252;52.540;13.290;2022-10-13T11:57:34;17.00;99.90
6439;DHT22;3252;52.540;13.290;2022-10-13T11:59:44;17.00;99.90
6439;DHT22;3252;52.540;13.290;2022-10-13T12:01:47;17.10;99.90
6439;DHT22;3252;52.540;13.290;2022-10-13T12:03:53;17.20;99.90
6439;DHT22;3252;52.540;13.290;2022-10-13T12:05:58;17.20;99.90
6439;DHT22;3252;52.540;13.290;2022-10-13T12:08:02;17.10;99.90
6439;DHT22;3252;52.540;13.290;2022-10-13T12:10:07;17.20;99.90
6439;DHT22;3252;52.540;13.290;2022-10-13T12:12:13;17.10;99.80
6439;DHT22;3252;52.540;13.290;2022-10-13T12:14:20;17.10;99.90
6439;DHT22;3252;52.540;13.290;2022-10-13T12:16:25;17.00;99.90
6439;DHT22;3252;52.540;13.290;2022-10-13T12:18:30;17.20;99.90
6439;DHT22;3252;52.540;13.290;2022-10-13T12:20:33;17.40;99.80
6439;DHT22;3252;52.540;13.290;2022-10-13T12:22:35;17.30;99.50
6439;DHT22;3252;52.540;13.290;2022-10-13T12:24:37;17.20;99.50
6439;DHT22;3252;52.540;13.290;2022-10-13T12:26:39;17.30;99.50
6439;DHT22;3252;52.540;13.290;2022-10-13T12:28:48;17.30;99.60
6439;DHT22;3252;52.540;13.290;2022-10-13T12:30:52;17.40;99.50
6439;DHT22;3252;52.540;13.290;2022-10-13T12:32:57;17.60;99.40
6439;DHT22;3252;52.540;13.290;2022-10-13T12:35:09;17.60;99.40
6439;DHT22;3252;52.540;13.290;2022-10-13T12:37:17;18.00;99.10
6439;DHT22;3252;52.540;13.290;2022-10-13T12:39:22;18.00;98.90
6439;DHT22;3252;52.540;13.290;2022-10-13T12:41:27;17.90;99.00
6439;DHT22;3252;52.540;13.290;2022-10-13T12:43:30;17.80;99.00
6439;DHT22;3252;52.540;13.290;2022-10-13T12:45:33;17.70;99.30
6439;DHT22;3252;52.540;13.290;2022-10-13T12:47:38;17.50;99.30
6439;DHT22;3252;52.540;13.290;2022-10-13T12:49:42;17.50;99.80
6439;DHT22;3252;52.540;13.290;2022-10-13T12:51:46;17.40;99.50
6439;DHT22;3252;52.540;13.290;2022-10-13T12:53:49;17.30;99.60
6439;DHT22;3252;52.540;13.290;2022-10-13T12:55:53;17.20;99.70
6439;DHT22;3252;52.540;13.290;2022-10-13T12:57:58;17.10;99.80
6439;DHT22;3252;52.540;13.290;2022-10-13T13:00:00;17.00;99.70
6439;DHT22;3252;52.540;13.290;2022-10-13T13:02:16;16.90;99.90
6439;DHT22;3252;52.540;13.290;2022-10-13T13:04:28;16.90;99.90
6439;DHT22;3252;52.540;13.290;2022-10-13T13:06:33;16.90;99.90
6439;DHT22;3252;52.540;13.290;2022-10-13T13:08:37;16.90;99.90
6439;DHT22;3252;52.540;13.290;2022-10-13T13:10:53;16.70;99.90
6439;DHT22;3252;52.540;13.290;2022-10-13T13:12:55;16.70;99.90
6439;DHT22;3252;52.540;13.290;2022-10-13T13:15:32;16.60;99.90
6439;DHT22;3252;52.540;13.290;2022-10-13T13:17:34;16.60;99.90
6439;DHT22;3252;52.540;13.290;2022-10-13T13:19:38;16.50;99.90
6439;DHT22;3252;52.540;13.290;2022-10-13T13:21:44;16.50;99.90
6439;DHT22;3252;52.540;13.290;2022-10-13T13:23:47;16.50;99.90
6439;DHT22;3252;52.540;13.290;2022-10-13T13:25:59;16.50;99.90
6439;DHT22;3252;52.540;13.290;2022-10-13T13:28:03;16.50;99.90
6439;DHT22;3252;52.540;13.290;2022-10-13T13:30:09;16.50;99.90
6439;DHT22;3252;52.540;13.290;2022-10-13T13:32:13;16.50;99.90
6439;DHT22;3252;52.540;13.290;2022-10-13T13:34:16;16.40;99.90
6439;DHT22;3252;52.540;13.290;2022-10-13T13:36:20;16.40;99.90
6439;DHT22;3252;52.540;13.290;2022-10-13T13:38:26;16.40;99.90
6439;DHT22;3252;52.540;13.290;2022-10-13T13:40:28;16.40;99.90